createdAt,value
2019-06-27T00:01:34.766Z,26.83
2019-06-27T00:04:01.511Z,26.88
2019-06-27T00:06:28.374Z,26.85
2019-06-27T00:08:55.142Z,26.86
2019-06-27T00:11:21.920Z,26.87
2019-06-27T00:13:48.705Z,26.75
2019-06-27T00:16:15.470Z,26.81
2019-06-27T00:18:42.224Z,26.79
2019-06-27T00:21:08.991Z,26.74
2019-06-27T00:23:35.730Z,26.64
2019-06-27T00:26:02.526Z,26.60
2019-06-27T00:28:29.286Z,26.55
2019-06-27T00:30:56.059Z,26.57
2019-06-27T00:33:22.807Z,26.44
2019-06-27T00:35:49.572Z,26.37
2019-06-27T00:38:16.354Z,26.39
2019-06-27T00:40:43.175Z,26.45
2019-06-27T00:43:09.870Z,26.43
2019-06-27T00:45:36.718Z,26.47
2019-06-27T00:48:03.519Z,26.46
2019-06-27T00:50:30.263Z,26.47
2019-06-27T00:52:57.042Z,26.50
2019-06-27T00:55:23.781Z,26.49
2019-06-27T00:57:51.561Z,26.52
2019-06-27T01:00:18.335Z,26.46
2019-06-27T01:02:45.082Z,26.44
2019-06-27T01:05:11.826Z,26.51
2019-06-27T01:07:38.589Z,26.41
2019-06-27T01:10:05.352Z,26.34
2019-06-27T01:12:32.110Z,26.21
2019-06-27T01:14:58.904Z,26.17
2019-06-27T01:17:25.689Z,26.22
2019-06-27T01:19:52.424Z,26.15
2019-06-27T01:22:19.194Z,26.14
2019-06-27T01:24:45.938Z,26.08
2019-06-27T01:27:25.996Z,25.99
2019-06-27T01:29:39.455Z,25.93
2019-06-27T01:32:06.220Z,25.92
2019-06-27T01:34:32.962Z,25.84
2019-06-27T01:36:59.743Z,25.79
2019-06-27T01:39:26.511Z,25.80
2019-06-27T01:41:53.288Z,25.74
2019-06-27T01:44:25.854Z,25.72
2019-06-27T01:46:52.622Z,25.67
2019-06-27T01:49:19.392Z,25.66
2019-06-27T01:51:46.155Z,25.68
2019-06-27T01:54:12.898Z,25.66
2019-06-27T01:56:39.682Z,25.56
2019-06-27T01:59:06.433Z,25.43
2019-06-27T02:01:33.189Z,25.36
2019-06-27T02:03:59.939Z,25.53
2019-06-27T02:06:26.694Z,25.37
2019-06-27T02:08:53.438Z,25.29
2019-06-27T02:11:20.199Z,25.25
2019-06-27T02:13:46.968Z,25.22
2019-06-27T02:16:13.712Z,25.21
2019-06-27T02:18:40.485Z,25.12
2019-06-27T02:21:07.242Z,25.07
2019-06-27T02:23:33.999Z,25.05
2019-06-27T02:26:00.766Z,24.95
2019-06-27T02:28:27.520Z,24.97
2019-06-27T02:30:54.270Z,24.88
2019-06-27T02:33:21.044Z,24.87
2019-06-27T02:35:47.779Z,24.83
2019-06-27T02:38:14.536Z,24.89
2019-06-27T02:40:41.280Z,24.81
2019-06-27T02:43:08.084Z,24.79
2019-06-27T02:45:34.896Z,24.74
2019-06-27T02:48:01.672Z,24.73
2019-06-27T02:50:28.423Z,24.85
2019-06-27T02:52:55.195Z,24.63
2019-06-27T02:55:21.946Z,24.54
2019-06-27T02:57:48.807Z,24.56
2019-06-27T03:00:15.566Z,24.53
2019-06-27T03:02:42.347Z,24.48
2019-06-27T03:05:09.087Z,24.49
2019-06-27T03:07:35.871Z,24.50
2019-06-27T03:10:03.020Z,24.47
2019-06-27T03:12:29.782Z,24.55
2019-06-27T03:14:56.546Z,24.59
2019-06-27T03:17:23.290Z,24.35
2019-06-27T03:19:50.079Z,24.37
2019-06-27T03:22:18.396Z,24.30
2019-06-27T03:24:45.151Z,24.24
2019-06-27T03:27:11.900Z,24.23
2019-06-27T03:29:38.673Z,24.19
2019-06-27T03:32:05.416Z,24.10
2019-06-27T03:34:32.201Z,24.11
2019-06-27T03:36:58.991Z,24.11
2019-06-27T03:39:25.791Z,24.08
2019-06-27T03:41:52.540Z,24.16
2019-06-27T03:44:19.299Z,24.11
2019-06-27T03:46:46.076Z,24.05
2019-06-27T03:49:12.899Z,24.13
2019-06-27T03:51:39.665Z,24.22
2019-06-27T03:54:06.461Z,24.23
2019-06-27T03:56:33.237Z,24.15
2019-06-27T03:59:12.050Z,24.24
2019-06-27T04:01:26.749Z,24.24
2019-06-27T04:03:53.551Z,24.32
2019-06-27T04:06:20.267Z,24.39
2019-06-27T04:08:47.042Z,24.37
2019-06-27T04:11:13.848Z,24.40
2019-06-27T04:13:40.632Z,24.37
2019-06-27T04:16:07.465Z,24.39
2019-06-27T04:18:34.218Z,24.35
2019-06-27T04:21:01.024Z,24.39
2019-06-27T04:23:27.799Z,24.39
2019-06-27T04:25:54.572Z,24.41
2019-06-27T04:28:21.340Z,24.43
2019-06-27T04:30:48.123Z,24.45
2019-06-27T04:33:14.854Z,24.52
2019-06-27T04:35:41.642Z,24.48
2019-06-27T04:38:08.393Z,24.50
2019-06-27T04:40:35.147Z,24.50
2019-06-27T04:43:05.411Z,24.63
2019-06-27T04:45:28.645Z,24.67
2019-06-27T04:47:55.400Z,24.75
2019-06-27T04:50:22.266Z,24.88
2019-06-27T04:52:49.009Z,25.19
2019-06-27T04:55:16.811Z,24.75
2019-06-27T04:57:43.003Z,24.79
2019-06-27T05:00:12.457Z,24.87
2019-06-27T05:02:39.295Z,24.74
2019-06-27T05:05:06.067Z,24.68
2019-06-27T05:07:32.831Z,24.98
2019-06-27T05:09:59.598Z,24.92
2019-06-27T05:12:26.403Z,25.07
2019-06-27T05:14:53.206Z,24.92
2019-06-27T05:17:19.955Z,24.86
2019-06-27T05:19:46.700Z,24.99
2019-06-27T05:22:13.532Z,24.86
2019-06-27T05:24:40.326Z,25.06
2019-06-27T05:27:07.137Z,24.94
2019-06-27T05:29:33.933Z,25.00
2019-06-27T05:32:00.732Z,25.00
2019-06-27T05:34:27.514Z,24.99
2019-06-27T05:36:54.310Z,24.87
2019-06-27T05:39:21.055Z,24.97
2019-06-27T05:41:50.504Z,24.91
2019-06-27T05:44:14.618Z,25.11
2019-06-27T05:46:41.419Z,25.23
2019-06-27T05:49:08.224Z,25.57
2019-06-27T05:51:35.040Z,25.27
2019-06-27T05:54:01.817Z,25.05
2019-06-27T05:56:28.639Z,25.09
2019-06-27T05:58:55.390Z,24.72
2019-06-27T06:01:22.208Z,24.86
2019-06-27T06:03:49.002Z,25.13
2019-06-27T06:06:15.702Z,25.18
2019-06-27T06:08:42.504Z,25.19
2019-06-27T06:11:10.199Z,25.52
2019-06-27T06:13:37.047Z,25.30
2019-06-27T06:16:03.800Z,25.36
2019-06-27T06:18:30.539Z,25.35
2019-06-27T06:20:57.307Z,25.40
2019-06-27T06:23:24.186Z,25.38
2019-06-27T06:25:50.982Z,25.53
2019-06-27T06:28:17.718Z,25.40
2019-06-27T06:30:45.325Z,25.38
2019-06-27T06:33:11.207Z,25.42
2019-06-27T06:35:37.990Z,25.40
2019-06-27T06:38:04.755Z,25.54
2019-06-27T06:40:31.512Z,25.75
2019-06-27T06:43:00.587Z,25.77
2019-06-27T06:45:25.033Z,26.22
2019-06-27T06:47:51.807Z,26.09
2019-06-27T06:50:18.554Z,25.97
2019-06-27T06:52:45.347Z,26.31
2019-06-27T06:55:12.138Z,26.40
2019-06-27T06:57:38.912Z,26.81
2019-06-27T07:00:05.677Z,26.89
2019-06-27T07:02:32.456Z,26.77
2019-06-27T07:04:59.244Z,26.47
2019-06-27T07:07:26.021Z,26.49
2019-06-27T07:09:52.870Z,26.68
2019-06-27T07:12:19.745Z,26.66
2019-06-27T07:14:46.458Z,27.01
2019-06-27T07:17:13.232Z,26.99
2019-06-27T07:19:40.002Z,27.31
2019-06-27T07:22:06.763Z,27.53
2019-06-27T07:24:33.502Z,27.14
2019-06-27T07:27:00.371Z,26.99
2019-06-27T07:29:27.061Z,26.97
2019-06-27T07:31:53.833Z,27.14
2019-06-27T07:34:20.587Z,27.11
2019-06-27T07:36:47.366Z,27.15
2019-06-27T07:39:14.133Z,27.33
2019-06-27T07:41:40.886Z,27.39
2019-06-27T07:44:07.678Z,27.51
2019-06-27T07:46:34.434Z,27.50
2019-06-27T07:49:01.205Z,27.47
2019-06-27T07:51:27.959Z,27.72
2019-06-27T07:53:54.819Z,27.63
2019-06-27T07:56:21.576Z,27.47
2019-06-27T07:58:48.331Z,27.64
2019-06-27T08:01:15.079Z,27.78
2019-06-27T08:03:41.892Z,27.72
2019-06-27T08:06:08.635Z,28.01
2019-06-27T08:08:35.407Z,28.04
2019-06-27T08:11:02.179Z,28.01
2019-06-27T08:13:29.007Z,28.09
2019-06-27T08:15:55.730Z,28.43
2019-06-27T08:18:22.498Z,28.71
2019-06-27T08:20:49.250Z,28.96
2019-06-27T08:23:16.014Z,28.94
2019-06-27T08:25:42.769Z,28.99
2019-06-27T08:28:09.546Z,29.51
2019-06-27T08:30:36.302Z,29.04
2019-06-27T08:33:03.070Z,28.88
2019-06-27T08:35:33.414Z,28.86
2019-06-27T08:37:56.582Z,29.08
2019-06-27T08:40:23.357Z,28.96
2019-06-27T08:42:50.103Z,29.10
2019-06-27T08:45:16.890Z,29.42
2019-06-27T08:47:43.686Z,29.28
2019-06-27T08:50:10.496Z,28.97
2019-06-27T08:52:37.263Z,29.39
2019-06-27T08:55:04.019Z,29.21
2019-06-27T08:57:30.875Z,29.07
2019-06-27T08:59:57.648Z,29.01
2019-06-27T09:02:24.426Z,29.40
2019-06-27T09:04:51.191Z,29.34
2019-06-27T09:07:17.954Z,29.07
2019-06-27T09:09:44.703Z,29.55
2019-06-27T09:12:11.467Z,29.42
2019-06-27T09:14:38.260Z,29.64
2019-06-27T09:17:05.007Z,29.47
2019-06-27T09:19:31.788Z,29.85
2019-06-27T09:21:58.558Z,30.18
2019-06-27T09:24:25.307Z,29.81
2019-06-27T09:26:52.076Z,29.80
2019-06-27T09:29:18.862Z,29.53
2019-06-27T09:31:45.852Z,29.62
2019-06-27T09:34:12.602Z,29.64
2019-06-27T09:36:39.371Z,29.46
2019-06-27T09:39:06.103Z,30.37
2019-06-27T09:41:32.839Z,30.47
2019-06-27T09:43:59.612Z,30.48
2019-06-27T09:46:26.335Z,30.49
2019-06-27T09:48:53.086Z,30.54
2019-06-27T09:51:19.841Z,30.52
2019-06-27T09:53:46.607Z,30.40
2019-06-27T09:56:13.338Z,30.47
2019-06-27T09:58:40.095Z,30.72
2019-06-27T10:01:06.843Z,31.01
2019-06-27T10:03:33.615Z,31.35
2019-06-27T10:06:00.351Z,30.64
2019-06-27T10:08:27.124Z,30.79
2019-06-27T10:10:53.878Z,30.66
2019-06-27T10:13:20.691Z,30.76
2019-06-27T10:15:47.451Z,30.41
2019-06-27T10:18:14.216Z,30.81
2019-06-27T10:20:41.059Z,30.73
2019-06-27T10:23:07.848Z,31.01
2019-06-27T10:25:38.064Z,31.24
2019-06-27T10:28:01.362Z,31.11
2019-06-27T10:30:28.110Z,31.39
2019-06-27T10:32:59.810Z,31.37
2019-06-27T10:35:21.697Z,31.25
2019-06-27T10:37:48.475Z,31.14
2019-06-27T10:40:15.301Z,30.90
2019-06-27T10:42:42.067Z,30.81
2019-06-27T10:45:08.838Z,31.23
2019-06-27T10:47:35.671Z,31.28
2019-06-27T10:50:03.693Z,31.28
2019-06-27T10:52:30.450Z,30.88
2019-06-27T10:54:57.233Z,31.53
2019-06-27T10:57:24.051Z,31.39
2019-06-27T10:59:50.852Z,31.62
2019-06-27T11:02:17.639Z,31.55
2019-06-27T11:04:44.511Z,31.28
2019-06-27T11:07:11.237Z,31.01
2019-06-27T11:09:38.099Z,31.12
2019-06-27T11:12:04.869Z,31.22
2019-06-27T11:14:31.658Z,31.36
2019-06-27T11:16:58.403Z,31.38
2019-06-27T11:19:25.200Z,31.21
2019-06-27T11:21:52.185Z,31.03
2019-06-27T11:24:20.557Z,31.37
2019-06-27T11:26:47.542Z,31.36
2019-06-27T11:29:14.451Z,31.36
2019-06-27T11:31:41.202Z,31.55
2019-06-27T11:34:08.014Z,31.48
2019-06-27T11:36:34.835Z,31.35
2019-06-27T11:39:01.665Z,31.27
2019-06-27T11:41:28.490Z,31.38
2019-06-27T11:43:55.260Z,31.22
2019-06-27T11:46:22.081Z,30.81
2019-06-27T11:48:48.842Z,31.13
2019-06-27T11:51:15.603Z,31.12
2019-06-27T11:53:42.362Z,31.79
2019-06-27T11:56:09.221Z,31.94
2019-06-27T11:58:35.918Z,31.62
2019-06-27T12:01:05.461Z,31.73
2019-06-27T12:03:47.871Z,31.39
2019-06-27T12:05:58.999Z,31.54
2019-06-27T12:08:25.847Z,32.08
2019-06-27T12:10:52.655Z,31.83
2019-06-27T12:13:19.454Z,31.85
2019-06-27T12:15:46.262Z,31.68
2019-06-27T12:18:13.014Z,31.49
2019-06-27T12:20:39.791Z,31.27
2019-06-27T12:23:06.540Z,31.42
2019-06-27T12:25:33.340Z,31.41
2019-06-27T12:28:00.090Z,31.36
2019-06-27T12:30:27.032Z,31.40
2019-06-27T12:32:53.970Z,31.44
2019-06-27T12:35:20.956Z,31.57
2019-06-27T12:37:47.903Z,31.54
2019-06-27T12:40:14.631Z,31.45
2019-06-27T12:42:42.030Z,31.72
2019-06-27T12:45:08.929Z,31.58
2019-06-27T12:47:35.803Z,31.53
2019-06-27T12:50:03.324Z,31.83
2019-06-27T12:52:29.668Z,31.96
2019-06-27T12:54:57.093Z,31.81
2019-06-27T12:57:24.191Z,31.76
2019-06-27T12:59:51.259Z,31.61
2019-06-27T13:02:18.725Z,31.82
2019-06-27T13:04:45.882Z,31.73
2019-06-27T13:07:12.639Z,31.81
2019-06-27T13:09:39.459Z,31.78
2019-06-27T13:12:06.227Z,31.86
2019-06-27T13:14:33.003Z,32.05
2019-06-27T13:16:59.758Z,31.86
2019-06-27T13:19:26.650Z,32.01
2019-06-27T13:21:54.888Z,32.11
2019-06-27T13:24:21.650Z,32.36
2019-06-27T13:26:49.509Z,32.12
2019-06-27T13:29:16.284Z,32.42
2019-06-27T13:31:43.092Z,32.18
2019-06-27T13:34:09.855Z,31.95
2019-06-27T13:36:36.615Z,32.05
2019-06-27T13:39:06.411Z,32.31
2019-06-27T13:41:30.879Z,32.23
2019-06-27T13:43:57.627Z,32.32
2019-06-27T13:46:24.503Z,32.72
2019-06-27T13:48:51.200Z,32.20
2019-06-27T13:51:18.042Z,32.31
2019-06-27T13:53:44.786Z,32.61
2019-06-27T13:56:11.566Z,32.58
2019-06-27T13:58:38.329Z,32.49
2019-06-27T14:01:05.106Z,32.57
2019-06-27T14:03:47.829Z,32.40
2019-06-27T14:05:58.668Z,32.27
2019-06-27T14:08:26.377Z,32.29
2019-06-27T14:10:52.198Z,32.22
2019-06-27T14:13:18.946Z,32.37
2019-06-27T14:15:46.845Z,32.26
2019-06-27T14:18:13.579Z,32.23
2019-06-27T14:20:40.534Z,32.39
2019-06-27T14:23:07.271Z,32.54
2019-06-27T14:25:34.156Z,32.65
2019-06-27T14:28:01.988Z,32.63
2019-06-27T14:30:28.739Z,32.82
2019-06-27T14:32:55.524Z,32.49
2019-06-27T14:35:22.362Z,32.71
2019-06-27T14:37:49.122Z,32.79
2019-06-27T14:40:15.924Z,32.51
2019-06-27T14:42:42.690Z,32.47
2019-06-27T14:45:09.457Z,32.48
2019-06-27T14:47:36.350Z,32.53
2019-06-27T14:50:03.166Z,32.52
2019-06-27T14:52:29.907Z,32.60
2019-06-27T14:54:56.682Z,32.69
2019-06-27T14:57:23.438Z,32.54
2019-06-27T14:59:50.199Z,32.85
2019-06-27T15:02:16.958Z,32.89
2019-06-27T15:04:43.713Z,32.64
2019-06-27T15:07:10.483Z,32.34
2019-06-27T15:09:37.244Z,32.24
2019-06-27T15:12:04.012Z,32.16
2019-06-27T15:14:30.833Z,32.32
2019-06-27T15:16:57.621Z,32.59
2019-06-27T15:19:24.378Z,32.74
2019-06-27T15:21:51.170Z,32.38
2019-06-27T15:24:17.946Z,32.48
2019-06-27T15:26:44.732Z,32.49
2019-06-27T15:29:11.515Z,32.39
2019-06-27T15:31:38.303Z,32.11
2019-06-27T15:34:05.050Z,32.15
2019-06-27T15:36:31.830Z,31.98
2019-06-27T15:38:58.622Z,32.16
2019-06-27T15:41:25.431Z,32.23
2019-06-27T15:43:52.227Z,32.35
2019-06-27T15:46:18.979Z,32.34
2019-06-27T15:48:46.777Z,32.18
2019-06-27T15:51:13.542Z,32.24
2019-06-27T15:53:40.367Z,32.21
2019-06-27T15:56:07.249Z,32.20
2019-06-27T15:58:33.906Z,32.13
2019-06-27T16:01:00.745Z,32.19
2019-06-27T16:03:27.531Z,32.20
2019-06-27T16:06:08.222Z,31.88
2019-06-27T16:08:21.086Z,31.86
2019-06-27T16:10:47.859Z,31.80
2019-06-27T16:13:14.618Z,31.87
2019-06-27T16:15:41.440Z,32.02
2019-06-27T16:18:08.495Z,32.14
2019-06-27T16:20:35.371Z,32.02
2019-06-27T16:23:02.135Z,31.67
2019-06-27T16:25:28.914Z,31.77
2019-06-27T16:27:55.770Z,31.93
2019-06-27T16:30:22.603Z,32.12
2019-06-27T16:32:49.459Z,31.97
2019-06-27T16:35:16.228Z,31.96
2019-06-27T16:37:42.978Z,32.00
2019-06-27T16:40:09.707Z,31.97
2019-06-27T16:42:36.502Z,31.94
2019-06-27T16:45:03.727Z,31.87
2019-06-27T16:47:30.515Z,31.72
2019-06-27T16:49:57.279Z,31.85
2019-06-27T16:52:24.051Z,31.75
2019-06-27T16:54:50.819Z,31.50
2019-06-27T16:57:17.603Z,31.44
2019-06-27T16:59:44.366Z,31.41
2019-06-27T17:02:11.143Z,31.42
2019-06-27T17:04:37.911Z,31.52
2019-06-27T17:07:04.673Z,31.79
2019-06-27T17:09:31.427Z,31.85
2019-06-27T17:11:58.207Z,31.90
2019-06-27T17:14:24.953Z,31.78
2019-06-27T17:16:51.797Z,31.67
2019-06-27T17:19:18.506Z,31.85
2019-06-27T17:21:45.294Z,31.80
2019-06-27T17:24:12.047Z,31.60
2019-06-27T17:26:38.815Z,31.63
2019-06-27T17:29:05.558Z,31.59
2019-06-27T17:31:32.336Z,31.54
2019-06-27T17:33:59.100Z,32.26
2019-06-27T17:36:25.919Z,32.14
2019-06-27T17:38:52.690Z,32.16
2019-06-27T17:41:19.470Z,32.26
2019-06-27T17:43:46.227Z,32.57
2019-06-27T17:46:13.086Z,32.60
2019-06-27T17:48:39.842Z,33.17
2019-06-27T17:51:07.963Z,33.46
2019-06-27T17:53:33.365Z,33.61
2019-06-27T17:56:00.151Z,34.03
2019-06-27T17:58:26.931Z,33.81
2019-06-27T18:00:53.818Z,34.13
2019-06-27T18:03:20.679Z,34.22
2019-06-27T18:05:47.259Z,34.38
2019-06-27T18:08:14.050Z,34.89
2019-06-27T18:10:40.799Z,34.26
2019-06-27T18:13:07.662Z,34.60
2019-06-27T18:15:34.488Z,34.26
2019-06-27T18:18:01.242Z,33.77
2019-06-27T18:20:28.106Z,33.55
2019-06-27T18:22:54.927Z,33.76
2019-06-27T18:25:21.875Z,33.99
2019-06-27T18:27:48.624Z,34.20
2019-06-27T18:30:15.384Z,33.92
2019-06-27T18:32:42.123Z,34.21
2019-06-27T18:35:08.889Z,33.90
2019-06-27T18:37:35.653Z,33.67
2019-06-27T18:40:02.438Z,32.90
2019-06-27T18:42:29.193Z,31.70
2019-06-27T18:44:55.991Z,30.56
2019-06-27T18:47:22.758Z,29.81
2019-06-27T18:49:49.478Z,29.81
2019-06-27T18:52:16.822Z,29.52
2019-06-27T18:54:47.602Z,29.17
2019-06-27T18:57:14.354Z,28.65
2019-06-27T18:59:41.092Z,28.17
2019-06-27T19:04:45.702Z,27.79
2019-06-27T19:07:12.454Z,27.75
2019-06-27T19:09:39.182Z,27.56
2019-06-27T19:12:05.934Z,27.48
2019-06-27T19:14:32.728Z,27.38
2019-06-27T19:16:59.510Z,27.24
2019-06-27T19:19:26.950Z,27.58
2019-06-27T19:22:14.300Z,27.24
2019-06-27T19:24:47.666Z,27.13
2019-06-27T19:27:14.497Z,26.97
2019-06-27T19:29:41.309Z,26.87
2019-06-27T19:32:08.352Z,26.71
2019-06-27T19:34:35.099Z,26.65
2019-06-27T19:37:01.934Z,26.63
2019-06-27T19:39:28.673Z,26.33
2019-06-27T19:41:57.166Z,26.25
2019-06-27T19:44:22.145Z,26.14
2019-06-27T19:46:48.886Z,26.04
2019-06-27T19:49:15.723Z,25.88
2019-06-27T19:51:42.479Z,25.76
2019-06-27T19:54:09.237Z,25.43
2019-06-27T19:56:35.967Z,25.37
2019-06-27T19:59:02.754Z,25.24
2019-06-27T20:01:29.482Z,25.09
2019-06-27T20:03:56.283Z,24.94
2019-06-27T20:06:23.018Z,24.60
2019-06-27T20:08:49.783Z,24.45
2019-06-27T20:11:16.514Z,24.40
2019-06-27T20:13:43.300Z,24.09
2019-06-27T20:16:10.019Z,24.03
2019-06-27T20:18:36.834Z,24.37
2019-06-27T20:21:03.587Z,24.29
2019-06-27T20:23:30.338Z,24.17
2019-06-27T20:25:57.057Z,24.14
2019-06-27T20:28:23.810Z,24.25
2019-06-27T20:30:50.803Z,23.53
2019-06-27T20:33:17.583Z,23.74
2019-06-27T20:35:44.321Z,23.23
2019-06-27T20:38:11.091Z,22.89
2019-06-27T20:40:37.943Z,22.75
2019-06-27T20:43:04.687Z,22.86
2019-06-27T20:45:31.535Z,22.97
2019-06-27T20:47:58.266Z,23.42
2019-06-27T20:50:24.999Z,23.04
2019-06-27T20:52:51.805Z,23.44
2019-06-27T20:55:18.465Z,22.96
2019-06-27T20:57:45.208Z,22.83
2019-06-27T21:00:11.938Z,22.70
2019-06-27T21:02:38.814Z,22.54
2019-06-27T21:05:05.733Z,22.13
2019-06-27T21:07:32.498Z,21.88
2019-06-27T21:09:59.250Z,21.75
2019-06-27T21:12:26.052Z,21.72
2019-06-27T21:14:52.851Z,21.66
2019-06-27T21:17:19.620Z,21.64
2019-06-27T21:19:46.386Z,21.51
2019-06-27T21:22:13.156Z,21.32
2019-06-27T21:24:39.957Z,21.45
2019-06-27T21:27:06.704Z,21.27
2019-06-27T21:29:33.520Z,21.39
2019-06-27T21:32:00.305Z,21.73
2019-06-27T21:34:27.083Z,21.46
2019-06-27T21:36:53.940Z,21.34
2019-06-27T21:39:20.712Z,21.26
2019-06-27T21:41:47.511Z,21.11
2019-06-27T21:44:14.318Z,21.02
2019-06-27T21:46:41.082Z,20.83
2019-06-27T21:49:11.231Z,20.83
2019-06-27T21:51:34.638Z,20.61
2019-06-27T21:54:01.486Z,20.77
2019-06-27T21:56:28.230Z,20.89
2019-06-27T21:58:56.070Z,20.97
2019-06-27T22:01:22.831Z,20.63
2019-06-27T22:03:49.613Z,20.56
2019-06-27T22:06:16.396Z,20.57
2019-06-27T22:08:43.192Z,20.54
2019-06-27T22:11:09.972Z,20.54
2019-06-27T22:13:36.742Z,20.45
2019-06-27T22:16:03.490Z,20.41
2019-06-27T22:18:30.259Z,20.29
2019-06-27T22:20:57.022Z,20.02
2019-06-27T22:23:23.782Z,19.94
2019-06-27T22:25:50.526Z,19.87
2019-06-27T22:28:17.326Z,19.77
2019-06-27T22:30:44.074Z,19.68
2019-06-27T22:33:10.887Z,19.63
2019-06-27T22:35:37.696Z,19.56
2019-06-27T22:38:10.258Z,19.57
2019-06-27T22:40:42.886Z,19.47
2019-06-27T22:43:15.539Z,19.58
2019-06-27T22:45:48.110Z,19.71
2019-06-27T22:48:14.488Z,19.61
2019-06-27T22:50:47.390Z,19.62
2019-06-27T22:53:15.834Z,19.56
2019-06-27T22:55:42.602Z,19.54
2019-06-27T22:58:09.359Z,19.55
2019-06-27T23:00:36.171Z,19.57
2019-06-27T23:03:02.930Z,19.50
2019-06-27T23:05:31.563Z,19.50
2019-06-27T23:07:58.292Z,19.58
2019-06-27T23:10:25.061Z,19.50
2019-06-27T23:12:51.819Z,19.61
2019-06-27T23:15:18.550Z,19.37
2019-06-27T23:17:45.362Z,19.24
2019-06-27T23:20:12.121Z,19.32
2019-06-27T23:22:38.894Z,19.40
2019-06-27T23:25:05.726Z,19.22
2019-06-27T23:27:32.499Z,19.24
2019-06-27T23:29:59.230Z,19.29
2019-06-27T23:32:25.987Z,19.22
2019-06-27T23:34:52.731Z,19.18
2019-06-27T23:37:19.514Z,19.16
2019-06-27T23:39:46.251Z,19.09
2019-06-27T23:42:13.009Z,18.95
2019-06-27T23:44:39.742Z,18.73
2019-06-27T23:48:26.175Z,18.69
2019-06-27T23:50:53.007Z,18.65
2019-06-27T23:53:19.687Z,18.66
2019-06-27T23:55:46.450Z,18.53
2019-06-27T23:58:13.173Z,18.63
